createdAt,value
2019-05-07T00:00:32.868Z,80.20
2019-05-07T00:03:03.249Z,79.80
2019-05-07T00:05:33.264Z,79.70
2019-05-07T00:08:03.132Z,80.10
2019-05-07T00:10:33.127Z,80.50
2019-05-07T00:13:02.725Z,82.10
2019-05-07T00:15:32.768Z,82.50
2019-05-07T00:18:03.192Z,81.90
2019-05-07T00:20:32.961Z,82.20
2019-05-07T00:23:03.089Z,82.00
2019-05-07T00:25:32.907Z,81.40
2019-05-07T00:28:02.922Z,82.30
2019-05-07T00:30:33.212Z,82.90
2019-05-07T00:33:02.962Z,83.40
2019-05-07T00:35:34.011Z,83.80
2019-05-07T00:38:07.961Z,84.00
2019-05-07T00:40:38.911Z,82.90
2019-05-07T00:43:11.895Z,83.10
2019-05-07T00:45:52.879Z,83.40
2019-05-07T00:48:23.505Z,84.30
2019-05-07T00:50:54.515Z,84.50
2019-05-07T00:53:23.894Z,84.60
2019-05-07T00:55:53.225Z,84.80
2019-05-07T00:58:26.573Z,84.70
2019-05-07T01:00:53.661Z,84.60
2019-05-07T01:03:22.989Z,85.60
2019-05-07T01:05:52.818Z,86.30
2019-05-07T01:08:22.671Z,86.70
2019-05-07T01:10:52.958Z,85.90
2019-05-07T01:13:23.411Z,86.20
2019-05-07T01:15:53.301Z,86.60
2019-05-07T01:18:23.479Z,87.00
2019-05-07T01:20:53.425Z,86.40
2019-05-07T01:23:23.211Z,86.50
2019-05-07T01:25:52.868Z,86.50
2019-05-07T01:28:22.583Z,86.90
2019-05-07T01:30:52.845Z,87.90
2019-05-07T01:33:26.984Z,88.00
2019-05-07T01:35:58.004Z,88.30
2019-05-07T01:38:27.332Z,88.30
2019-05-07T01:40:56.710Z,87.80
2019-05-07T01:43:26.049Z,88.00
2019-05-07T01:45:55.363Z,87.80
2019-05-07T01:48:24.771Z,88.50
2019-05-07T01:50:54.200Z,88.90
2019-05-07T01:53:23.533Z,89.30
2019-05-07T01:55:52.844Z,89.80
2019-05-07T01:58:22.267Z,89.70
2019-05-07T02:00:53.232Z,90.00
2019-05-07T02:03:32.646Z,89.20
2019-05-07T02:06:03.250Z,89.30
2019-05-07T02:08:42.081Z,89.80
2019-05-07T02:11:12.926Z,90.20
2019-05-07T02:13:42.330Z,90.20
2019-05-07T02:16:12.416Z,90.40
2019-05-07T02:18:42.457Z,90.30
2019-05-07T02:21:12.933Z,90.20
2019-05-07T02:23:42.705Z,90.20
2019-05-07T02:26:13.361Z,90.50
2019-05-07T02:28:42.879Z,90.70
2019-05-07T02:31:15.085Z,90.60
2019-05-07T02:33:43.759Z,90.70
2019-05-07T02:36:14.201Z,91.00
2019-05-07T02:38:45.452Z,90.50
2019-05-07T02:41:16.521Z,90.30
2019-05-07T02:43:45.806Z,90.40
2019-05-07T02:46:31.206Z,90.60
2019-05-07T02:48:58.453Z,90.30
2019-05-07T02:51:37.855Z,90.30
2019-05-07T02:54:08.836Z,90.20
2019-05-07T02:56:38.145Z,90.50
2019-05-07T02:59:07.485Z,90.70
2019-05-07T03:01:37.032Z,90.80
2019-05-07T03:04:06.371Z,90.80
2019-05-07T03:06:35.751Z,91.00
2019-05-07T03:09:07.026Z,90.90
2019-05-07T03:11:36.405Z,91.20
2019-05-07T03:14:05.807Z,91.00
2019-05-07T03:16:43.260Z,90.80
2019-05-07T03:19:06.311Z,90.60
2019-05-07T03:21:43.997Z,90.50
2019-05-07T03:24:18.349Z,90.50
2019-05-07T03:26:47.162Z,90.60
2019-05-07T03:29:18.125Z,90.70
2019-05-07T03:31:56.336Z,90.40
2019-05-07T03:34:36.176Z,90.30
2019-05-07T03:37:06.168Z,90.00
2019-05-07T03:39:34.212Z,89.90
2019-05-07T03:42:03.699Z,90.10
2019-05-07T03:44:34.645Z,90.00
2019-05-07T03:47:23.556Z,90.20
2019-05-07T03:49:53.479Z,90.50
2019-05-07T03:52:24.547Z,91.90
2019-05-07T03:54:54.345Z,92.10
2019-05-07T03:57:24.154Z,90.90
2019-05-07T03:59:53.606Z,90.50
2019-05-07T04:02:23.927Z,89.30
2019-05-07T04:04:53.546Z,89.50
2019-05-07T04:07:23.541Z,89.10
2019-05-07T04:09:53.585Z,88.40
2019-05-07T04:12:23.848Z,88.30
2019-05-07T04:14:53.892Z,88.50
2019-05-07T04:17:26.863Z,87.60
2019-05-07T04:19:54.378Z,88.10
2019-05-07T04:22:28.458Z,88.90
2019-05-07T04:24:56.806Z,89.60
2019-05-07T04:27:33.258Z,89.90
2019-05-07T04:30:03.812Z,90.00
2019-05-07T04:32:34.677Z,89.70
2019-05-07T04:35:17.706Z,90.00
2019-05-07T04:37:47.008Z,90.30
2019-05-07T04:40:16.461Z,90.20
2019-05-07T04:42:45.793Z,90.50
2019-05-07T04:45:15.594Z,90.60
2019-05-07T04:47:47.787Z,90.30
2019-05-07T04:50:37.270Z,90.30
2019-05-07T04:52:49.061Z,90.30
2019-05-07T04:55:22.756Z,90.30
2019-05-07T04:57:53.369Z,90.50
2019-05-07T05:00:22.898Z,90.80
2019-05-07T05:03:03.151Z,91.00
2019-05-07T05:05:33.015Z,91.10
2019-05-07T05:08:03.860Z,90.90
2019-05-07T05:10:33.706Z,90.90
2019-05-07T05:13:03.457Z,90.90
2019-05-07T05:15:32.908Z,90.60
2019-05-07T05:18:02.768Z,90.50
2019-05-07T05:20:33.784Z,90.60
2019-05-07T05:23:07.195Z,90.30
2019-05-07T05:25:42.967Z,90.50
2019-05-07T05:28:12.524Z,90.30
2019-05-07T05:30:52.683Z,90.00
2019-05-07T05:33:23.410Z,86.50
2019-05-07T05:35:52.907Z,84.90
2019-05-07T05:38:22.411Z,85.20
2019-05-07T05:40:52.200Z,85.40
2019-05-07T05:43:28.903Z,84.60
2019-05-07T05:45:59.931Z,85.60
2019-05-07T05:48:29.274Z,85.30
2019-05-07T05:51:06.282Z,85.20
2019-05-07T05:53:40.251Z,84.10
2019-05-07T05:56:13.923Z,83.80
2019-05-07T05:58:47.804Z,83.70
2019-05-07T06:01:24.671Z,83.40
2019-05-07T06:04:07.659Z,83.80
2019-05-07T06:06:38.601Z,83.70
2019-05-07T06:09:13.735Z,83.50
2019-05-07T06:12:02.955Z,82.70
2019-05-07T06:14:33.869Z,82.80
2019-05-07T06:17:12.799Z,81.20
2019-05-07T06:19:49.137Z,80.50
2019-05-07T06:22:25.582Z,80.80
2019-05-07T06:24:58.964Z,80.30
2019-05-07T06:27:28.301Z,79.10
2019-05-07T06:29:57.613Z,78.50
2019-05-07T06:32:28.599Z,79.20
2019-05-07T06:34:57.911Z,78.80
2019-05-07T06:37:29.330Z,78.80
2019-05-07T06:40:06.100Z,77.60
2019-05-07T06:42:52.399Z,77.40
2019-05-07T06:45:32.303Z,77.00
2019-05-07T06:48:02.834Z,76.90
2019-05-07T06:50:32.672Z,76.80
2019-05-07T06:53:02.804Z,77.00
2019-05-07T06:55:32.609Z,77.20
2019-05-07T06:58:02.596Z,75.90
2019-05-07T07:00:42.230Z,74.60
2019-05-07T07:03:25.092Z,74.70
2019-05-07T07:05:56.035Z,75.10
2019-05-07T07:08:32.795Z,73.20
2019-05-07T07:11:03.880Z,72.30
2019-05-07T07:13:33.279Z,73.00
2019-05-07T07:16:02.671Z,72.40
2019-05-07T07:18:32.436Z,71.80
2019-05-07T07:21:02.450Z,72.20
2019-05-07T07:23:32.522Z,71.90
2019-05-07T07:26:03.184Z,72.40
2019-05-07T07:28:32.972Z,72.80
2019-05-07T07:31:09.714Z,71.70
2019-05-07T07:33:40.685Z,71.30
2019-05-07T07:36:11.993Z,71.00
2019-05-07T07:38:42.089Z,71.50
2019-05-07T07:41:14.086Z,71.30
2019-05-07T07:43:43.416Z,71.10
2019-05-07T07:46:13.969Z,71.60
2019-05-07T07:48:43.756Z,70.30
2019-05-07T07:51:13.763Z,70.10
2019-05-07T07:53:43.531Z,66.40
2019-05-07T07:56:45.393Z,65.80
2019-05-07T07:59:03.411Z,65.70
2019-05-07T08:01:34.438Z,64.40
2019-05-07T08:04:03.782Z,66.20
2019-05-07T08:06:33.245Z,66.40
2019-05-07T08:09:02.561Z,66.00
2019-05-07T08:11:32.051Z,65.00
2019-05-07T08:14:02.322Z,62.10
2019-05-07T08:16:32.797Z,59.20
2019-05-07T08:19:02.969Z,59.10
2019-05-07T08:21:33.221Z,59.80
2019-05-07T08:24:02.916Z,60.60
2019-05-07T08:26:32.409Z,60.10
2019-05-07T08:29:02.934Z,60.00
2019-05-07T08:31:51.723Z,60.30
2019-05-07T08:34:42.693Z,59.90
2019-05-07T08:37:12.107Z,60.00
2019-05-07T08:39:42.868Z,59.80
2019-05-07T08:42:12.453Z,58.40
2019-05-07T08:44:49.248Z,59.00
2019-05-07T08:47:22.687Z,57.40
2019-05-07T08:49:52.364Z,57.70
2019-05-07T08:52:22.359Z,56.90
2019-05-07T08:54:52.833Z,56.90
2019-05-07T08:57:22.862Z,56.20
2019-05-07T09:00:00.262Z,56.00
2019-05-07T09:02:23.332Z,56.10
2019-05-07T09:04:52.650Z,54.90
2019-05-07T09:07:22.147Z,53.40
2019-05-07T09:09:52.350Z,51.10
2019-05-07T09:12:22.925Z,52.30
2019-05-07T09:14:53.048Z,50.70
2019-05-07T09:17:23.074Z,50.90
2019-05-07T09:19:54.912Z,47.80
2019-05-07T09:22:23.892Z,47.70
2019-05-07T09:24:53.215Z,48.40
2019-05-07T09:27:24.742Z,50.80
2019-05-07T09:29:55.707Z,47.80
2019-05-07T09:32:27.086Z,47.10
2019-05-07T09:34:58.038Z,46.90
2019-05-07T09:37:29.154Z,47.10
2019-05-07T09:39:58.467Z,48.00
2019-05-07T09:42:27.873Z,48.20
2019-05-07T09:44:57.199Z,47.80
2019-05-07T09:47:27.218Z,48.50
2019-05-07T09:50:04.737Z,47.50
2019-05-07T09:52:27.695Z,47.40
2019-05-07T09:54:57.016Z,46.50
2019-05-07T09:57:31.125Z,46.80
2019-05-07T09:59:57.635Z,46.60
2019-05-07T10:02:27.118Z,45.40
2019-05-07T10:04:56.601Z,44.50
2019-05-07T10:07:25.933Z,45.10
2019-05-07T10:09:55.382Z,45.10
2019-05-07T10:12:26.366Z,45.20
2019-05-07T10:14:55.842Z,44.10
2019-05-07T10:17:29.691Z,43.80
2019-05-07T10:19:59.249Z,43.70
2019-05-07T10:22:28.657Z,44.10
2019-05-07T10:24:58.041Z,44.60
2019-05-07T10:27:27.621Z,44.60
2019-05-07T10:29:57.176Z,44.40
2019-05-07T10:32:26.585Z,43.50
2019-05-07T10:34:55.965Z,43.80
2019-05-07T10:37:25.444Z,45.70
2019-05-07T10:39:54.890Z,46.50
2019-05-07T10:42:24.292Z,44.00
2019-05-07T10:45:13.022Z,41.50
2019-05-07T10:47:52.026Z,41.40
2019-05-07T10:50:35.251Z,41.50
2019-05-07T10:52:54.250Z,41.70
2019-05-07T10:55:23.623Z,39.60
2019-05-07T10:57:53.041Z,43.00
2019-05-07T11:00:25.439Z,40.00
2019-05-07T11:02:54.918Z,38.40
2019-05-07T11:05:24.317Z,38.80
2019-05-07T11:07:54.006Z,39.70
2019-05-07T11:10:23.585Z,39.70
2019-05-07T11:12:54.458Z,38.60
2019-05-07T11:15:23.924Z,38.40
2019-05-07T11:18:02.746Z,39.50
2019-05-07T11:20:32.176Z,37.20
2019-05-07T11:23:02.668Z,34.10
2019-05-07T11:25:32.048Z,34.20
2019-05-07T11:28:02.817Z,35.10
2019-05-07T11:30:32.358Z,33.80
2019-05-07T11:33:02.697Z,34.00
2019-05-07T11:35:32.219Z,36.00
2019-05-07T11:38:06.684Z,34.60
2019-05-07T11:40:34.842Z,35.20
2019-05-07T11:43:05.429Z,35.50
2019-05-07T11:45:48.406Z,37.00
2019-05-07T11:48:18.885Z,38.60
2019-05-07T11:51:04.336Z,36.80
2019-05-07T11:53:34.022Z,38.80
2019-05-07T11:56:03.338Z,36.70
2019-05-07T11:58:32.768Z,34.20
2019-05-07T12:01:04.223Z,34.00
2019-05-07T12:03:33.481Z,32.00
2019-05-07T12:06:02.897Z,33.60
2019-05-07T12:08:42.501Z,33.70
2019-05-07T12:11:03.255Z,32.90
2019-05-07T12:13:32.579Z,35.40
2019-05-07T12:16:02.899Z,33.00
2019-05-07T12:18:32.427Z,34.20
2019-05-07T12:21:03.759Z,32.40
2019-05-07T12:23:33.298Z,33.30
2019-05-07T12:26:02.784Z,33.60
2019-05-07T12:28:32.866Z,34.20
2019-05-07T12:31:15.776Z,34.20
2019-05-07T12:33:58.571Z,35.60
2019-05-07T12:36:28.047Z,38.00
2019-05-07T12:38:57.358Z,37.70
2019-05-07T12:41:29.579Z,36.30
2019-05-07T12:44:02.718Z,35.60
2019-05-07T12:46:33.550Z,36.90
2019-05-07T12:49:03.411Z,35.50
2019-05-07T12:51:37.706Z,37.90
2019-05-07T12:54:07.801Z,38.70
2019-05-07T12:56:37.144Z,37.70
2019-05-07T12:59:06.593Z,36.70
2019-05-07T13:01:37.555Z,35.70
2019-05-07T13:04:11.281Z,34.00
2019-05-07T13:06:42.279Z,34.10
2019-05-07T13:09:12.628Z,34.40
2019-05-07T13:11:42.507Z,33.60
2019-05-07T13:14:12.561Z,34.20
2019-05-07T13:16:41.990Z,35.30
2019-05-07T13:19:13.099Z,34.60
2019-05-07T13:21:47.456Z,34.40
2019-05-07T13:24:14.922Z,31.70
2019-05-07T13:26:44.432Z,31.40
2019-05-07T13:29:13.738Z,32.90
2019-05-07T13:31:43.315Z,32.80
2019-05-07T13:34:13.162Z,34.10
2019-05-07T13:36:44.474Z,34.70
2019-05-07T13:39:15.730Z,32.90
2019-05-07T13:41:46.781Z,35.50
2019-05-07T13:44:17.805Z,34.00
2019-05-07T13:46:48.877Z,32.50
2019-05-07T13:49:18.262Z,31.90
2019-05-07T13:52:01.096Z,32.70
2019-05-07T13:54:21.710Z,34.50
2019-05-07T13:56:52.557Z,33.90
2019-05-07T13:59:22.427Z,34.60
2019-05-07T14:01:53.460Z,34.50
2019-05-07T14:04:22.839Z,34.40
2019-05-07T14:06:52.954Z,34.50
2019-05-07T14:09:25.729Z,34.90
2019-05-07T14:11:55.205Z,35.10
2019-05-07T14:14:24.651Z,31.60
2019-05-07T14:16:54.056Z,31.80
2019-05-07T14:19:23.367Z,30.80
2019-05-07T14:21:52.833Z,31.60
2019-05-07T14:24:22.587Z,32.80
2019-05-07T14:26:52.802Z,31.00
2019-05-07T14:29:24.669Z,32.70
2019-05-07T14:31:55.111Z,30.70
2019-05-07T14:34:36.030Z,33.20
2019-05-07T14:37:08.124Z,34.40
2019-05-07T14:39:37.444Z,33.80
2019-05-07T14:42:08.417Z,34.80
2019-05-07T14:44:50.179Z,33.90
2019-05-07T14:47:22.300Z,34.00
2019-05-07T14:49:52.918Z,34.10
2019-05-07T14:52:39.039Z,34.60
2019-05-07T14:55:12.754Z,33.20
2019-05-07T14:57:42.266Z,31.40
2019-05-07T15:00:12.452Z,32.00
2019-05-07T15:02:42.345Z,32.80
2019-05-07T15:05:12.221Z,32.60
2019-05-07T15:07:41.872Z,32.00
2019-05-07T15:10:11.424Z,31.70
2019-05-07T15:12:42.610Z,31.30
2019-05-07T15:15:12.606Z,31.70
2019-05-07T15:17:55.575Z,32.40
2019-05-07T15:20:24.957Z,31.10
2019-05-07T15:22:58.425Z,30.00
2019-05-07T15:25:27.987Z,28.50
2019-05-07T15:27:57.668Z,29.10
2019-05-07T15:30:28.627Z,29.50
2019-05-07T15:32:57.969Z,30.70
2019-05-07T15:35:27.294Z,28.80
2019-05-07T15:37:56.901Z,28.80
2019-05-07T15:40:26.231Z,28.30
2019-05-07T15:42:55.643Z,30.40
2019-05-07T15:45:25.095Z,30.00
2019-05-07T15:47:56.079Z,29.40
2019-05-07T15:50:27.107Z,29.40
2019-05-07T15:52:58.898Z,29.10
2019-05-07T15:55:28.233Z,28.10
2019-05-07T15:57:58.450Z,30.00
2019-05-07T16:00:33.492Z,30.10
2019-05-07T16:03:12.086Z,29.00
2019-05-07T16:05:42.506Z,29.30
2019-05-07T16:08:13.752Z,28.60
2019-05-07T16:10:43.065Z,28.90
2019-05-07T16:13:14.105Z,30.00
2019-05-07T16:15:43.438Z,29.90
2019-05-07T16:18:23.606Z,30.50
2019-05-07T16:21:04.965Z,30.30
2019-05-07T16:23:33.850Z,31.20
2019-05-07T16:26:05.307Z,30.20
2019-05-07T16:28:34.239Z,30.20
2019-05-07T16:31:03.536Z,30.30
2019-05-07T16:33:34.791Z,30.90
2019-05-07T16:36:03.905Z,30.80
2019-05-07T16:38:33.245Z,29.90
2019-05-07T16:41:02.566Z,31.50
2019-05-07T16:43:31.902Z,30.20
2019-05-07T16:46:02.482Z,30.20
2019-05-07T16:48:32.729Z,30.70
2019-05-07T16:51:02.396Z,31.40
2019-05-07T16:53:33.077Z,31.90
2019-05-07T16:56:03.049Z,31.70
2019-05-07T16:58:48.642Z,32.30
2019-05-07T17:01:18.127Z,32.80
2019-05-07T17:03:49.108Z,33.40
2019-05-07T17:06:18.447Z,33.80
2019-05-07T17:08:51.566Z,33.60
2019-05-07T17:11:22.469Z,33.40
2019-05-07T17:13:51.988Z,34.90
2019-05-07T17:16:22.873Z,35.10
2019-05-07T17:18:52.424Z,34.70
2019-05-07T17:21:21.943Z,34.00
2019-05-07T17:23:51.903Z,35.20
2019-05-07T17:26:23.173Z,36.30
2019-05-07T17:28:52.584Z,36.10
2019-05-07T17:31:22.925Z,36.20
2019-05-07T17:33:52.317Z,36.10
2019-05-07T17:36:22.486Z,36.60
2019-05-07T17:38:52.106Z,36.40
2019-05-07T17:41:26.541Z,36.20
2019-05-07T17:43:52.550Z,36.80
2019-05-07T17:46:21.918Z,36.80
2019-05-07T17:48:52.371Z,37.70
2019-05-07T17:51:42.061Z,38.40
2019-05-07T17:54:13.238Z,39.30
2019-05-07T17:56:43.683Z,38.10
2019-05-07T17:59:13.100Z,37.70
2019-05-07T18:01:44.142Z,39.20
2019-05-07T18:04:13.739Z,38.90
2019-05-07T18:06:43.079Z,39.50
2019-05-07T18:09:12.463Z,40.20
2019-05-07T18:11:42.907Z,41.00
2019-05-07T18:14:12.264Z,40.90
2019-05-07T18:16:45.960Z,41.10
2019-05-07T18:19:15.340Z,42.00
2019-05-07T18:21:44.762Z,42.30
2019-05-07T18:24:16.690Z,42.80
2019-05-07T18:26:45.271Z,42.90
2019-05-07T18:29:14.672Z,43.20
2019-05-07T18:31:57.644Z,43.70
2019-05-07T18:34:27.021Z,44.60
2019-05-07T18:36:56.407Z,44.70
2019-05-07T18:39:25.731Z,44.70
2019-05-07T18:41:55.131Z,45.70
2019-05-07T18:44:24.448Z,45.50
2019-05-07T18:46:53.809Z,45.50
2019-05-07T18:49:23.132Z,46.10
2019-05-07T18:51:52.467Z,46.20
2019-05-07T18:54:30.469Z,47.00
2019-05-07T18:56:54.495Z,47.70
2019-05-07T18:59:32.098Z,47.90
2019-05-07T19:02:02.308Z,47.90
2019-05-07T19:04:32.834Z,48.90
2019-05-07T19:07:02.677Z,49.70
2019-05-07T19:09:33.801Z,50.70
2019-05-07T19:12:04.014Z,51.20
2019-05-07T19:14:33.454Z,50.90
2019-05-07T19:17:03.296Z,50.90
2019-05-07T19:19:32.942Z,51.20
2019-05-07T19:22:02.614Z,51.90
2019-05-07T19:24:44.610Z,52.00
2019-05-07T19:27:04.308Z,52.50
2019-05-07T19:29:33.607Z,55.00
2019-05-07T19:32:05.557Z,53.30
2019-05-07T19:34:34.915Z,52.50
2019-05-07T19:37:04.365Z,52.90
2019-05-07T19:39:33.676Z,53.30
2019-05-07T19:42:03.060Z,53.40
2019-05-07T19:44:32.430Z,54.30
2019-05-07T19:47:02.097Z,54.50
2019-05-07T19:49:32.517Z,55.30
2019-05-07T19:52:01.920Z,55.50
2019-05-07T19:54:32.434Z,56.50
2019-05-07T19:57:02.719Z,56.80
2019-05-07T19:59:32.734Z,56.90
2019-05-07T20:02:03.854Z,57.00
2019-05-07T20:04:33.163Z,57.50
2019-05-07T20:07:07.101Z,57.20
2019-05-07T20:09:38.128Z,57.70
2019-05-07T20:12:08.087Z,57.80
2019-05-07T20:14:37.582Z,58.50
2019-05-07T20:17:07.089Z,58.70
2019-05-07T20:19:36.512Z,59.90
2019-05-07T20:22:05.908Z,60.60
2019-05-07T20:24:35.272Z,61.60
2019-05-07T20:27:04.733Z,61.50
2019-05-07T20:29:36.903Z,62.60
2019-05-07T20:32:06.291Z,61.70
2019-05-07T20:34:35.611Z,61.00
2019-05-07T20:37:05.103Z,61.40
2019-05-07T20:39:34.442Z,61.00
2019-05-07T20:42:03.844Z,61.00
2019-05-07T20:44:33.204Z,63.20
2019-05-07T20:47:02.547Z,64.10
2019-05-07T20:49:32.132Z,61.60
2019-05-07T20:52:01.585Z,62.50
2019-05-07T20:54:42.010Z,62.70
2019-05-07T20:57:15.978Z,63.00
2019-05-07T20:59:45.338Z,64.80
2019-05-07T21:02:14.752Z,65.60
2019-05-07T21:04:44.100Z,65.10
2019-05-07T21:07:13.516Z,64.90
2019-05-07T21:09:42.836Z,64.80
2019-05-07T21:12:12.837Z,63.80
2019-05-07T21:14:42.297Z,64.30
2019-05-07T21:17:12.070Z,64.90
2019-05-07T21:19:42.772Z,64.30
2019-05-07T21:22:13.051Z,65.50
2019-05-07T21:24:42.518Z,64.10
2019-05-07T21:27:12.336Z,63.50
2019-05-07T21:29:42.330Z,64.60
2019-05-07T21:32:12.365Z,65.10
2019-05-07T21:34:42.209Z,65.50
2019-05-07T21:37:12.628Z,66.50
2019-05-07T21:39:42.470Z,66.90
2019-05-07T21:42:14.198Z,67.50
2019-05-07T21:44:43.150Z,67.50
2019-05-07T21:47:12.986Z,66.80
2019-05-07T21:49:43.066Z,66.60
2019-05-07T21:52:12.833Z,66.50
2019-05-07T21:54:43.828Z,66.90
2019-05-07T21:57:14.784Z,67.50
2019-05-07T21:59:44.284Z,68.00
2019-05-07T22:02:16.082Z,68.20
2019-05-07T22:04:45.481Z,68.00
2019-05-07T22:07:14.879Z,68.60
2019-05-07T22:09:44.288Z,69.60
2019-05-07T22:12:13.677Z,69.60
2019-05-07T22:14:43.015Z,70.00
2019-05-07T22:17:12.846Z,70.20
2019-05-07T22:19:42.761Z,70.20
2019-05-07T22:22:12.446Z,70.20
2019-05-07T22:24:42.555Z,70.00
2019-05-07T22:27:12.936Z,69.90
2019-05-07T22:29:42.522Z,71.00
2019-05-07T22:32:13.475Z,71.30
2019-05-07T22:34:47.162Z,71.40
2019-05-07T22:37:16.485Z,71.60
2019-05-07T22:39:45.814Z,72.00
2019-05-07T22:42:15.269Z,73.00
2019-05-07T22:44:44.653Z,72.70
2019-05-07T22:47:22.167Z,72.90
2019-05-07T22:49:53.707Z,73.00
2019-05-07T22:52:22.660Z,72.90
2019-05-07T22:54:51.972Z,72.60
2019-05-07T22:57:37.815Z,72.00
2019-05-07T23:00:12.288Z,72.60
2019-05-07T23:02:42.764Z,72.20
2019-05-07T23:05:13.567Z,72.20
2019-05-07T23:07:44.012Z,72.80
2019-05-07T23:10:13.725Z,73.10
2019-05-07T23:12:43.047Z,72.10
2019-05-07T23:15:13.286Z,72.10
2019-05-07T23:17:42.718Z,71.80
2019-05-07T23:20:12.222Z,72.10
2019-05-07T23:22:42.836Z,72.10
2019-05-07T23:25:12.229Z,72.80
2019-05-07T23:27:42.009Z,73.20
2019-05-07T23:30:12.980Z,73.10
2019-05-07T23:32:42.407Z,73.20
2019-05-07T23:35:12.688Z,73.30
2019-05-07T23:37:44.197Z,73.10
2019-05-07T23:40:22.987Z,73.00
2019-05-07T23:42:56.719Z,73.40
2019-05-07T23:45:26.057Z,73.70
2019-05-07T23:47:55.376Z,73.90
2019-05-07T23:50:24.710Z,74.70
2019-05-07T23:52:54.032Z,74.90
2019-05-07T23:55:23.368Z,75.10
2019-05-07T23:57:52.750Z,75.70
